createdAt,value
2022-08-05T00:01:36.124Z,21.56
2022-08-05T00:04:08.446Z,21.52
2022-08-05T00:06:38.944Z,21.48
2022-08-05T00:09:13.143Z,21.45
2022-08-05T00:11:48.751Z,21.42
2022-08-05T00:14:27.658Z,21.37
2022-08-05T00:16:58.593Z,21.33
2022-08-05T00:19:33.663Z,21.30
2022-08-05T00:22:11.142Z,21.25
2022-08-05T00:24:42.336Z,21.22
2022-08-05T00:27:16.554Z,21.17
2022-08-05T00:29:46.069Z,21.13
2022-08-05T00:32:15.682Z,21.09
2022-08-05T00:35:06.116Z,21.06
2022-08-05T00:37:52.547Z,21.01
2022-08-05T00:40:28.093Z,20.98
2022-08-05T00:43:00.417Z,20.94
2022-08-05T00:45:42.996Z,20.92
2022-08-05T00:48:14.074Z,20.87
2022-08-05T00:50:46.658Z,20.83
2022-08-05T00:54:00.001Z,20.79
2022-08-05T00:56:09.401Z,20.76
2022-08-05T00:58:39.457Z,20.73
2022-08-05T01:01:12.875Z,20.70
2022-08-05T01:03:43.015Z,20.68
2022-08-05T01:06:18.827Z,20.65
2022-08-05T01:08:50.134Z,20.63
2022-08-05T01:11:33.596Z,20.59
2022-08-05T01:14:15.857Z,20.54
2022-08-05T01:16:52.322Z,20.53
2022-08-05T01:20:02.149Z,20.48
2022-08-05T01:23:15.230Z,20.43
2022-08-05T01:26:19.949Z,20.40
2022-08-05T01:28:58.475Z,20.37
2022-08-05T01:31:44.575Z,20.34
2022-08-05T01:34:32.006Z,20.29
2022-08-05T01:37:24.957Z,20.25
2022-08-05T01:40:08.380Z,20.23
2022-08-05T01:42:43.399Z,20.22
2022-08-05T01:45:17.860Z,20.16
2022-08-05T01:47:54.459Z,20.14
2022-08-05T01:50:31.333Z,20.11
2022-08-05T01:53:05.679Z,20.10
2022-08-05T01:55:39.218Z,20.07
2022-08-05T01:58:15.416Z,20.05
2022-08-05T02:00:53.203Z,20.02
2022-08-05T02:03:31.610Z,19.98
2022-08-05T02:06:33.197Z,19.97
2022-08-05T02:08:58.966Z,19.96
2022-08-05T02:11:42.308Z,19.93
2022-08-05T02:14:28.215Z,19.91
2022-08-05T02:17:07.905Z,19.86
2022-08-05T02:19:53.936Z,19.83
2022-08-05T02:22:29.918Z,19.79
2022-08-05T02:25:07.425Z,19.77
2022-08-05T02:27:58.134Z,19.73
2022-08-05T02:30:51.548Z,19.72
2022-08-05T02:33:36.008Z,19.69
2022-08-05T02:36:15.631Z,19.67
2022-08-05T02:38:53.183Z,19.65
2022-08-05T02:41:28.834Z,19.62
2022-08-05T02:44:13.276Z,19.57
2022-08-05T02:46:58.902Z,19.57
2022-08-05T02:49:37.716Z,19.53
2022-08-05T02:52:13.539Z,19.50
2022-08-05T02:54:56.478Z,19.47
2022-08-05T02:58:09.288Z,19.45
2022-08-05T03:00:18.158Z,19.41
2022-08-05T03:02:49.770Z,19.41
2022-08-05T03:06:56.394Z,19.37
2022-08-05T03:08:13.372Z,19.37
2022-08-05T03:10:44.787Z,19.53
2022-08-05T03:13:52.058Z,19.87
2022-08-05T03:16:22.654Z,20.30
2022-08-05T03:18:51.857Z,20.48
2022-08-05T03:21:22.622Z,20.62
2022-08-05T03:23:59.334Z,20.65
2022-08-05T03:26:30.938Z,20.63
2022-08-05T03:29:01.801Z,20.61
2022-08-05T03:31:56.145Z,20.57
2022-08-05T03:34:20.811Z,20.48
2022-08-05T03:36:55.073Z,20.39
2022-08-05T03:39:27.306Z,20.37
2022-08-05T03:41:56.983Z,20.36
2022-08-05T03:44:29.022Z,20.39
2022-08-05T03:46:58.133Z,20.38
2022-08-05T03:49:31.078Z,20.38
2022-08-05T03:52:38.978Z,20.36
2022-08-05T03:56:05.757Z,20.33
2022-08-05T03:58:28.837Z,20.32
2022-08-05T04:01:04.030Z,20.31
2022-08-05T04:03:38.166Z,20.29
2022-08-05T04:06:08.888Z,20.29
2022-08-05T04:08:39.752Z,20.25
2022-08-05T04:11:09.910Z,20.28
2022-08-05T04:13:50.873Z,20.26
2022-08-05T04:16:24.104Z,20.25
2022-08-05T04:19:00.320Z,20.27
2022-08-05T04:22:09.351Z,20.29
2022-08-05T04:24:22.970Z,20.27
2022-08-05T04:26:51.972Z,20.31
2022-08-05T04:29:21.142Z,20.34
2022-08-05T04:31:52.006Z,20.33
2022-08-05T04:34:32.498Z,20.36
2022-08-05T04:37:05.651Z,20.38
2022-08-05T04:39:36.025Z,20.40
2022-08-05T04:42:06.254Z,20.44
2022-08-05T04:44:35.529Z,20.46
2022-08-05T04:47:08.817Z,20.46
2022-08-05T04:50:01.474Z,20.46
2022-08-05T04:52:28.473Z,20.43
2022-08-05T04:54:58.917Z,20.47
2022-08-05T04:57:47.463Z,20.49
2022-08-05T05:00:18.067Z,20.54
2022-08-05T05:02:47.155Z,20.59
2022-08-05T05:05:26.552Z,20.62
2022-08-05T05:08:02.540Z,20.65
2022-08-05T05:10:38.710Z,20.68
2022-08-05T05:13:10.574Z,20.71
2022-08-05T05:15:57.418Z,20.78
2022-08-05T05:18:33.340Z,20.85
2022-08-05T05:21:05.579Z,20.91
2022-08-05T05:24:02.179Z,21.00
2022-08-05T05:26:28.288Z,21.11
2022-08-05T05:29:02.670Z,21.22
2022-08-05T05:31:46.295Z,21.35
2022-08-05T05:34:15.519Z,21.47
2022-08-05T05:36:45.710Z,21.60
2022-08-05T05:39:16.221Z,21.73
2022-08-05T05:41:54.148Z,21.89
2022-08-05T05:44:36.621Z,22.00
2022-08-05T05:47:21.733Z,22.10
2022-08-05T05:49:56.541Z,22.22
2022-08-05T05:52:33.164Z,22.38
2022-08-05T05:55:13.555Z,22.52
2022-08-05T05:57:52.586Z,22.71
2022-08-05T06:00:31.510Z,22.88
2022-08-05T06:03:03.021Z,23.11
2022-08-05T06:05:32.343Z,23.26
2022-08-05T06:08:03.862Z,23.38
2022-08-05T06:10:36.576Z,23.51
2022-08-05T06:13:07.766Z,23.64
2022-08-05T06:16:27.409Z,23.78
2022-08-05T06:18:31.262Z,23.87
2022-08-05T06:21:01.498Z,23.95
2022-08-05T06:23:43.656Z,24.02
2022-08-05T06:26:21.272Z,24.09
2022-08-05T06:28:52.304Z,24.14
2022-08-05T06:31:22.000Z,24.20
2022-08-05T06:34:07.700Z,24.24
2022-08-05T06:36:57.851Z,24.27
2022-08-05T06:39:28.197Z,24.31
2022-08-05T06:41:58.803Z,24.34
2022-08-05T06:44:30.097Z,24.36
2022-08-05T06:46:59.681Z,24.39
2022-08-05T06:50:00.759Z,24.43
2022-08-05T06:52:37.244Z,24.50
2022-08-05T06:55:08.421Z,24.62
2022-08-05T06:57:57.564Z,24.78
2022-08-05T07:00:29.619Z,24.98
2022-08-05T07:02:58.690Z,25.20
2022-08-05T07:05:37.154Z,25.43
2022-08-05T07:08:10.948Z,25.66
2022-08-05T07:10:53.263Z,25.91
2022-08-05T07:13:59.431Z,26.20
2022-08-05T07:18:00.996Z,26.53
2022-08-05T07:20:23.028Z,26.92
2022-08-05T07:22:30.047Z,27.23
2022-08-05T07:25:21.908Z,27.51
2022-08-05T07:27:58.772Z,27.88
2022-08-05T07:30:34.025Z,28.22
2022-08-05T07:33:09.561Z,28.52
2022-08-05T07:36:04.200Z,28.83
2022-08-05T07:38:34.727Z,29.16
2022-08-05T07:42:08.400Z,29.51
2022-08-05T07:43:59.027Z,29.88
2022-08-05T07:46:30.946Z,30.20
2022-08-05T07:49:06.238Z,30.37
2022-08-05T07:51:54.563Z,30.67
2022-08-05T07:54:31.413Z,30.98
2022-08-05T07:57:22.566Z,31.11
2022-08-05T07:59:53.621Z,31.25
2022-08-05T08:02:31.293Z,31.38
2022-08-05T08:05:17.677Z,31.60
2022-08-05T08:08:00.129Z,31.70
2022-08-05T08:10:30.463Z,31.84
2022-08-05T08:12:59.896Z,31.96
2022-08-05T08:16:34.606Z,31.95
2022-08-05T08:18:20.888Z,31.86
2022-08-05T08:21:02.964Z,31.85
2022-08-05T08:24:01.500Z,31.88
2022-08-05T08:26:26.834Z,32.01
2022-08-05T08:29:22.012Z,32.11
2022-08-05T08:31:49.854Z,32.21
2022-08-05T08:34:30.256Z,32.32
2022-08-05T08:37:05.202Z,32.50
2022-08-05T08:39:37.534Z,32.59
2022-08-05T08:42:32.435Z,32.83
2022-08-05T08:45:22.114Z,33.17
2022-08-05T08:48:07.558Z,33.54
2022-08-05T08:51:04.052Z,33.87
2022-08-05T08:53:45.185Z,33.96
2022-08-05T08:56:14.602Z,34.04
2022-08-05T08:58:47.842Z,34.03
2022-08-05T09:01:19.011Z,34.01
2022-08-05T09:03:54.576Z,33.98
2022-08-05T09:06:29.961Z,33.95
2022-08-05T09:09:02.973Z,34.00
2022-08-05T09:11:51.249Z,34.03
2022-08-05T09:14:58.769Z,33.93
2022-08-05T09:17:16.155Z,33.90
2022-08-05T09:20:08.410Z,33.88
2022-08-05T09:23:08.983Z,34.06
2022-08-05T09:26:03.977Z,34.17
2022-08-05T09:28:32.477Z,34.28
2022-08-05T09:31:22.614Z,34.42
2022-08-05T09:33:59.117Z,34.61
2022-08-05T09:36:54.193Z,34.90
2022-08-05T09:39:41.470Z,35.14
2022-08-05T09:42:24.389Z,35.34
2022-08-05T09:45:17.701Z,35.58
2022-08-05T09:47:56.016Z,35.80
2022-08-05T09:50:38.157Z,36.09
2022-08-05T09:53:23.185Z,36.35
2022-08-05T09:56:04.757Z,36.62
2022-08-05T09:58:43.704Z,36.83
2022-08-05T10:01:31.602Z,37.07
2022-08-05T10:04:10.622Z,37.25
2022-08-05T10:06:41.463Z,37.43
2022-08-05T10:09:27.489Z,37.69
2022-08-05T10:12:30.629Z,37.79
2022-08-05T10:15:17.348Z,37.84
2022-08-05T10:18:09.968Z,37.90
2022-08-05T10:20:44.186Z,38.00
2022-08-05T10:23:33.881Z,38.16
2022-08-05T10:26:14.458Z,38.35
2022-08-05T10:28:45.212Z,38.47
2022-08-05T10:32:48.233Z,38.55
2022-08-05T10:34:08.476Z,38.62
2022-08-05T10:36:38.912Z,38.74
2022-08-05T10:39:24.622Z,38.93
2022-08-05T10:42:14.593Z,39.14
2022-08-05T10:44:51.554Z,39.32
2022-08-05T10:47:26.198Z,39.33
2022-08-05T10:50:32.299Z,39.53
2022-08-05T10:52:58.709Z,39.59
2022-08-05T10:55:30.305Z,39.58
2022-08-05T10:58:11.234Z,39.48
2022-08-05T11:00:48.416Z,39.63
2022-08-05T11:03:27.110Z,39.84
2022-08-05T11:06:08.314Z,39.89
2022-08-05T11:08:39.382Z,39.96
2022-08-05T11:11:52.143Z,40.15
2022-08-05T11:14:49.438Z,40.30
2022-08-05T11:18:07.390Z,40.38
2022-08-05T11:20:43.867Z,40.57
2022-08-05T11:24:02.515Z,40.79
2022-08-05T11:26:28.904Z,40.86
2022-08-05T11:29:12.331Z,40.96
2022-08-05T11:31:58.579Z,41.05
2022-08-05T11:34:38.938Z,41.07
2022-08-05T11:38:26.390Z,40.62
2022-08-05T11:40:02.682Z,40.53
2022-08-05T11:42:37.830Z,40.57
2022-08-05T11:45:14.450Z,40.62
2022-08-05T11:47:56.348Z,40.94
2022-08-05T11:50:26.871Z,41.16
2022-08-05T11:52:58.440Z,41.14
2022-08-05T11:55:32.164Z,40.98
2022-08-05T11:58:10.029Z,40.82
2022-08-05T12:00:44.492Z,40.76
2022-08-05T12:03:29.309Z,40.91
2022-08-05T12:06:05.858Z,41.02
2022-08-05T12:08:50.633Z,41.12
2022-08-05T12:11:22.208Z,41.06
2022-08-05T12:13:58.696Z,40.83
2022-08-05T12:16:31.318Z,40.69
2022-08-05T12:19:00.920Z,40.77
2022-08-05T12:21:33.617Z,41.02
2022-08-05T12:24:11.633Z,41.31
2022-08-05T12:26:44.150Z,41.47
2022-08-05T12:29:16.177Z,41.42
2022-08-05T12:31:54.321Z,41.41
2022-08-05T12:34:28.280Z,41.36
2022-08-05T12:36:59.168Z,41.27
2022-08-05T12:39:34.752Z,41.17
2022-08-05T12:42:14.873Z,41.21
2022-08-05T12:44:45.991Z,41.52
2022-08-05T12:47:30.602Z,41.69
2022-08-05T12:50:03.594Z,41.67
2022-08-05T12:52:38.782Z,41.47
2022-08-05T12:55:25.161Z,41.58
2022-08-05T12:58:39.161Z,41.72
2022-08-05T13:02:02.062Z,41.86
2022-08-05T13:03:41.959Z,41.94
2022-08-05T13:06:17.171Z,41.99
2022-08-05T13:08:51.597Z,42.12
2022-08-05T13:12:01.025Z,41.96
2022-08-05T13:14:24.776Z,41.78
2022-08-05T13:17:10.167Z,41.65
2022-08-05T13:19:52.396Z,41.68
2022-08-05T13:22:28.314Z,41.77
2022-08-05T13:25:05.140Z,41.86
2022-08-05T13:27:39.351Z,41.88
2022-08-05T13:30:34.629Z,41.83
2022-08-05T13:33:01.212Z,41.84
2022-08-05T13:35:47.515Z,41.89
2022-08-05T13:38:31.028Z,41.94
2022-08-05T13:41:03.782Z,41.92
2022-08-05T13:43:44.738Z,41.83
2022-08-05T13:46:43.772Z,41.95
2022-08-05T13:49:13.654Z,41.99
2022-08-05T13:51:45.779Z,41.93
2022-08-05T13:54:24.834Z,41.73
2022-08-05T13:56:54.516Z,41.52
2022-08-05T13:59:27.173Z,41.62
2022-08-05T14:02:00.149Z,41.66
2022-08-05T14:04:50.860Z,41.71
2022-08-05T14:07:55.458Z,41.82
2022-08-05T14:10:14.047Z,41.85
2022-08-05T14:12:49.121Z,41.82
2022-08-05T14:16:07.195Z,41.80
2022-08-05T14:18:17.818Z,41.92
2022-08-05T14:20:48.690Z,41.99
2022-08-05T14:23:24.648Z,42.00
2022-08-05T14:25:58.551Z,41.93
2022-08-05T14:28:29.661Z,41.82
2022-08-05T14:31:01.383Z,41.74
2022-08-05T14:34:00.089Z,41.70
2022-08-05T14:36:25.599Z,41.66
2022-08-05T14:38:55.332Z,41.66
2022-08-05T14:41:24.958Z,41.79
2022-08-05T14:44:00.146Z,41.86
2022-08-05T14:46:36.557Z,41.90
2022-08-05T14:49:08.342Z,41.94
2022-08-05T14:51:39.024Z,41.92
2022-08-05T14:54:28.223Z,41.92
2022-08-05T14:57:05.323Z,41.99
2022-08-05T14:59:38.824Z,41.98
2022-08-05T15:02:14.704Z,41.82
2022-08-05T15:04:47.882Z,41.78
2022-08-05T15:08:06.256Z,41.65
2022-08-05T15:10:10.138Z,41.59
2022-08-05T15:12:59.859Z,41.51
2022-08-05T15:15:55.609Z,41.38
2022-08-05T15:18:21.760Z,41.35
2022-08-05T15:20:51.042Z,41.30
2022-08-05T15:23:20.541Z,41.24
2022-08-05T15:25:52.302Z,41.07
2022-08-05T15:28:27.112Z,40.98
2022-08-05T15:30:57.594Z,40.88
2022-08-05T15:34:05.507Z,40.82
2022-08-05T15:36:24.513Z,40.84
2022-08-05T15:40:41.546Z,40.78
2022-08-05T15:41:58.045Z,40.77
2022-08-05T15:44:30.334Z,40.72
2022-08-05T15:47:03.618Z,40.59
2022-08-05T15:49:52.076Z,40.38
2022-08-05T15:52:51.575Z,40.25
2022-08-05T15:55:15.632Z,40.14
2022-08-05T15:57:46.003Z,39.84
2022-08-05T16:00:26.005Z,39.45
2022-08-05T16:03:07.894Z,39.15
2022-08-05T16:05:39.028Z,38.71
2022-08-05T16:08:10.784Z,38.36
2022-08-05T16:10:45.071Z,38.13
2022-08-05T16:13:19.283Z,37.89
2022-08-05T16:15:53.577Z,37.63
2022-08-05T16:18:28.102Z,37.41
2022-08-05T16:20:59.908Z,37.17
2022-08-05T16:23:53.657Z,36.84
2022-08-05T16:26:26.590Z,36.49
2022-08-05T16:28:56.710Z,36.18
2022-08-05T16:31:25.793Z,35.88
2022-08-05T16:34:14.997Z,35.56
2022-08-05T16:38:01.693Z,35.23
2022-08-05T16:40:26.499Z,35.04
2022-08-05T16:43:19.220Z,34.70
2022-08-05T16:46:23.784Z,34.47
2022-08-05T16:49:17.817Z,34.16
2022-08-05T16:51:57.009Z,33.95
2022-08-05T16:54:33.176Z,33.72
2022-08-05T16:57:02.350Z,33.53
2022-08-05T16:59:31.727Z,33.38
2022-08-05T17:02:01.104Z,33.19
2022-08-05T17:04:30.766Z,33.00
2022-08-05T17:07:01.867Z,32.83
2022-08-05T17:09:55.949Z,32.72
2022-08-05T17:12:50.638Z,32.58
2022-08-05T17:15:15.847Z,32.41
2022-08-05T17:17:54.712Z,32.30
2022-08-05T17:20:25.180Z,32.18
2022-08-05T17:22:57.510Z,32.07
2022-08-05T17:25:39.227Z,31.99
2022-08-05T17:28:10.003Z,31.96
2022-08-05T17:30:42.425Z,31.86
2022-08-05T17:33:20.118Z,31.78
2022-08-05T17:36:08.397Z,31.73
2022-08-05T17:38:39.903Z,31.59
2022-08-05T17:41:11.713Z,31.49
2022-08-05T17:44:00.126Z,31.34
2022-08-05T17:46:31.563Z,31.30
2022-08-05T17:49:05.027Z,31.19
2022-08-05T17:51:40.140Z,31.09
2022-08-05T17:54:10.232Z,30.98
2022-08-05T17:56:40.465Z,30.86
2022-08-05T17:59:16.061Z,30.74
2022-08-05T18:01:51.712Z,30.65
2022-08-05T18:04:21.467Z,30.58
2022-08-05T18:07:00.572Z,30.49
2022-08-05T18:09:59.543Z,30.36
2022-08-05T18:12:24.365Z,30.30
2022-08-05T18:14:53.587Z,30.15
2022-08-05T18:18:00.709Z,30.07
2022-08-05T18:20:14.118Z,29.93
2022-08-05T18:22:54.087Z,29.87
2022-08-05T18:25:25.145Z,29.76
2022-08-05T18:27:55.632Z,29.69
2022-08-05T18:30:26.349Z,29.64
2022-08-05T18:33:00.901Z,29.53
2022-08-05T18:36:01.421Z,29.40
2022-08-05T18:38:26.488Z,29.30
2022-08-05T18:44:33.067Z,29.06
2022-08-05T18:47:05.047Z,28.92
2022-08-05T18:49:57.398Z,28.80
2022-08-05T18:52:36.938Z,28.76
2022-08-05T18:55:21.465Z,28.65
2022-08-05T18:57:53.350Z,28.54
2022-08-05T19:00:34.881Z,28.45
2022-08-05T19:03:55.191Z,28.31
2022-08-05T19:06:55.096Z,28.18
2022-08-05T19:09:46.060Z,27.97
2022-08-05T19:12:53.588Z,27.89
2022-08-05T19:15:57.559Z,27.84
2022-08-05T19:18:39.775Z,27.65
2022-08-05T19:21:25.187Z,27.46
2022-08-05T19:24:07.943Z,27.35
2022-08-05T19:26:54.967Z,27.20
2022-08-05T19:29:35.739Z,26.98
2022-08-05T19:32:26.167Z,26.82
2022-08-05T19:35:55.729Z,26.69
2022-08-05T19:38:35.728Z,26.56
2022-08-05T19:42:05.330Z,26.43
2022-08-05T19:44:50.516Z,26.34
2022-08-05T19:47:55.715Z,26.17
2022-08-05T19:51:56.342Z,26.06
2022-08-05T19:54:29.420Z,25.88
2022-08-05T19:57:18.566Z,25.77
2022-08-05T20:00:04.227Z,25.62
2022-08-05T20:02:36.339Z,25.47
2022-08-05T20:05:24.583Z,25.40
2022-08-05T20:08:44.041Z,25.28
2022-08-05T20:11:19.471Z,25.22
2022-08-05T20:13:58.097Z,25.09
2022-08-05T20:16:43.812Z,24.96
2022-08-05T20:19:13.051Z,24.90
2022-08-05T20:21:46.034Z,24.84
2022-08-05T20:24:29.441Z,24.79
2022-08-05T20:26:59.814Z,24.68
2022-08-05T20:29:37.430Z,24.59
2022-08-05T20:32:10.220Z,24.54
2022-08-05T20:34:39.744Z,24.48
2022-08-05T20:37:24.265Z,24.37
2022-08-05T20:40:09.481Z,24.27
2022-08-05T20:42:41.985Z,24.17
2022-08-05T20:45:12.952Z,24.15
2022-08-05T20:47:41.942Z,24.09
2022-08-05T20:50:12.362Z,23.99
2022-08-05T20:52:44.361Z,23.86
2022-08-05T20:56:08.062Z,23.81
2022-08-05T20:58:08.482Z,23.74
2022-08-05T21:00:52.117Z,23.69
2022-08-05T21:03:26.324Z,23.63
2022-08-05T21:05:55.591Z,23.56
2022-08-05T21:08:46.071Z,23.50
2022-08-05T21:12:10.519Z,23.37
2022-08-05T21:14:26.707Z,23.24
2022-08-05T21:16:56.049Z,23.19
2022-08-05T21:19:28.389Z,23.13
2022-08-05T21:21:57.479Z,22.98
2022-08-05T21:24:26.519Z,22.87
2022-08-05T21:26:58.310Z,22.80
2022-08-05T21:29:31.939Z,22.66
2022-08-05T21:32:03.583Z,22.54
2022-08-05T21:34:32.966Z,22.46
2022-08-05T21:37:08.773Z,22.36
2022-08-05T21:39:40.603Z,22.25
2022-08-05T21:42:30.976Z,22.21
2022-08-05T21:45:00.065Z,22.12
2022-08-05T21:47:54.993Z,22.04
2022-08-05T21:50:18.595Z,21.96
2022-08-05T21:52:47.680Z,21.87
2022-08-05T21:55:17.164Z,21.80
2022-08-05T21:57:47.443Z,21.71
2022-08-05T22:00:18.518Z,21.64
2022-08-05T22:02:47.970Z,21.60
2022-08-05T22:05:17.768Z,21.54
2022-08-05T22:07:59.457Z,21.47
2022-08-05T22:10:31.521Z,21.41
2022-08-05T22:14:05.087Z,21.37
2022-08-05T22:16:01.136Z,21.36
2022-08-05T22:18:31.109Z,21.33
2022-08-05T22:21:04.073Z,21.26
2022-08-05T22:24:02.076Z,21.23
2022-08-05T22:26:55.318Z,21.13
2022-08-05T22:29:26.125Z,21.13
2022-08-05T22:32:02.637Z,21.10
2022-08-05T22:34:32.876Z,21.06
2022-08-05T22:37:04.033Z,20.97
2022-08-05T22:39:35.041Z,20.95
2022-08-05T22:42:12.327Z,20.94
2022-08-05T22:44:53.491Z,20.86
2022-08-05T22:47:29.951Z,20.75
2022-08-05T22:50:20.330Z,20.68
2022-08-05T22:52:51.382Z,20.64
2022-08-05T22:55:23.013Z,20.62
2022-08-05T22:57:53.671Z,20.60
2022-08-05T23:00:26.609Z,20.57
2022-08-05T23:02:58.108Z,20.53
2022-08-05T23:05:27.603Z,20.46
2022-08-05T23:07:56.594Z,20.42
2022-08-05T23:10:25.605Z,20.38
2022-08-05T23:12:55.943Z,20.30
2022-08-05T23:15:26.988Z,20.14
2022-08-05T23:18:03.646Z,20.16
2022-08-05T23:20:37.566Z,20.13
2022-08-05T23:23:08.883Z,20.11
2022-08-05T23:25:53.523Z,20.06
2022-08-05T23:28:26.910Z,20.04
2022-08-05T23:31:02.321Z,20.02
2022-08-05T23:34:04.084Z,19.96
2022-08-05T23:36:40.149Z,19.96
2022-08-05T23:39:17.687Z,19.84
2022-08-05T23:42:01.729Z,19.74
2022-08-05T23:44:32.247Z,19.67
2022-08-05T23:47:14.497Z,19.58
2022-08-05T23:49:47.640Z,19.51
2022-08-05T23:52:30.527Z,19.47
2022-08-05T23:55:02.543Z,19.42
2022-08-05T23:57:37.385Z,19.38
